This is the latest recevied weather packets stored in our database for station/object EB1HRW. If no packets are shown the sender has not sent any weather packets the latest 10 day(s).
| Time | Temp. | Humidity | Pressure | Rain* | Wind** | Luminosity | Snow |
|---|---|---|---|---|---|---|---|
| 1777850929 | 12.22° C | 79% | 1011.9 hPa | 0 mm | - | - | - |
| 1777850029 | 12.78° C | 79% | 1011.8 hPa | 0 mm | - | - | - |
| 1777849128 | 12.78° C | 78% | 1011.9 hPa | 0 mm | - | - | - |
| 1777848228 | 12.78° C | 77% | 1011.7 hPa | 0 mm | - | - | - |
| 1777848082 | 12.78° C | 77% | 1011.7 hPa | 0 mm | - | - | - |
| 1777847988 | 12.78° C | 76% | 1011.7 hPa | 0 mm | - | - | - |
| 1777847957 | 12.78° C | 77% | 1011.8 hPa | 0 mm | - | - | - |
| 1777847058 | 12.78° C | 77% | 1011.9 hPa | 0 mm | - | - | - |
| 1777846157 | 12.22° C | 78% | 1011.9 hPa | 0 mm | - | - | - |
| 1777845257 | 12.78° C | 77% | 1011.9 hPa | 0 mm | - | - | - |
| 1777844358 | 12.78° C | 75% | 1012.1 hPa | 0 mm | - | - | - |
| 1777843457 | 13.33° C | 73% | 1012.1 hPa | 0 mm | - | - | - |
| 1777842557 | 13.33° C | 71% | 1012.1 hPa | 0 mm | - | - | - |
| 1777841658 | 13.33° C | 71% | 1011.8 hPa | 0 mm | - | - | - |
| 1777840757 | 13.89° C | 71% | 1011.5 hPa | 0 mm | - | - | - |
| 1777839857 | 13.89° C | 71% | 1011.2 hPa | 0 mm | - | - | - |
| 1777838957 | 13.89° C | 70% | 1010.8 hPa | 0 mm | - | - | - |
| 1777838058 | 13.89° C | 72% | 1010.5 hPa | 0 mm | - | - | - |
| 1777837157 | 13.89° C | 71% | 1010.4 hPa | 0 mm | - | - | - |
| 1777836257 | 14.44° C | 70% | 1010.3 hPa | 0 mm | - | - | - |
| 1777835358 | 15° C | 68% | 1010 hPa | 0 mm | - | - | - |
| 1777834457 | 16.11° C | 59% | 1009.8 hPa | 0 mm | - | - | - |
| 1777833557 | 17.22° C | 58% | 1009.4 hPa | 0 mm | - | - | - |
| 1777832658 | 17.78° C | 55% | 1009.4 hPa | 0 mm | - | - | - |
| 1777831757 | 17.78° C | 52% | 1009.4 hPa | 0 mm | - | - | - |
* Rain latest hour (hover to see other rain measurements)
** Current wind speed in m/s (hover to see current wind gust speed)